This is the latest recevied weather packets stored in our database for station/object R6DH-11. If no packets are shown the sender has not sent any weather packets the latest 10 day(s).
| Time | Temp. | Humidity | Pressure | Rain* | Wind** | Luminosity | Snow |
|---|---|---|---|---|---|---|---|
| 1778166984 | 19.44° C | 46% | 1015.6 hPa | - | - | - | - |
| 1778166120 | 19.44° C | 45% | 1015.6 hPa | - | - | - | - |
| 1778165219 | 20.56° C | 46% | 1015.6 hPa | - | - | - | - |
| 1778164318 | 21.11° C | 46% | 1015.5 hPa | - | - | - | - |
| 1778163415 | 21.67° C | 47% | 1015.5 hPa | - | - | - | - |
| 1778162514 | 22.22° C | 44% | 1015.4 hPa | - | - | - | - |
| 1778161612 | 22.22° C | 44% | 1015.4 hPa | - | - | - | - |
| 1778160711 | 22.78° C | 42% | 1015.4 hPa | - | - | - | - |
| 1778159809 | 21.67° C | 41% | 1013.8 hPa | - | - | - | - |
| 1778158914 | 23.33° C | 41% | 1015.3 hPa | - | - | - | - |
| 1778158006 | 23.33° C | 41% | 1015.5 hPa | - | - | - | - |
| 1778157104 | 23.89° C | 39% | 1015.7 hPa | - | - | - | - |
| 1778156203 | 23.89° C | 40% | 1015.9 hPa | - | - | - | - |
| 1778155301 | 24.44° C | 40% | 1016 hPa | - | - | - | - |
| 1778154400 | 24.44° C | 40% | 1016 hPa | - | - | - | - |
| 1778153498 | 23.89° C | 38% | 1016.2 hPa | - | - | - | - |
| 1778152597 | 23.89° C | 38% | 1016.4 hPa | - | - | - | - |
| 1778151695 | 23.89° C | 38% | 1016.3 hPa | - | - | - | - |
| 1778150797 | 23.89° C | 39% | 1016.3 hPa | - | - | - | - |
| 1778149892 | 23.89° C | 40% | 1016.3 hPa | - | - | - | - |
| 1778148990 | 23.89° C | 40% | 1016.5 hPa | - | - | - | - |
| 1778148089 | 24.44° C | 41% | 1016.5 hPa | - | - | - | - |
| 1778146286 | 25° C | 39% | 1016.7 hPa | - | - | - | - |
| 1778145384 | 23.33° C | 44% | 1016.8 hPa | - | - | - | - |
| 1778144523 | 25° C | 39% | 1017 hPa | - | - | - | - |
* Rain since midnight (hover to see other rain measurements)
** Current wind speed in m/s (hover to see current wind gust speed)